sensor_id;sensor_type;location;lat;lon;timestamp;P1;durP1;ratioP1;P2;durP2;ratioP2
4232;SDS011;2130;48.472;11.934;2023-04-24T00:01:51;35.57;;;1.37;;
4232;SDS011;2130;48.472;11.934;2023-04-24T00:04:40;34.57;;;1.40;;
4232;SDS011;2130;48.472;11.934;2023-04-24T00:07:31;34.90;;;1.30;;
4232;SDS011;2130;48.472;11.934;2023-04-24T00:10:20;34.93;;;1.53;;
4232;SDS011;2130;48.472;11.934;2023-04-24T00:13:08;35.40;;;1.30;;
4232;SDS011;2130;48.472;11.934;2023-04-24T00:15:57;35.23;;;1.40;;
4232;SDS011;2130;48.472;11.934;2023-04-24T00:18:47;33.30;;;1.30;;
4232;SDS011;2130;48.472;11.934;2023-04-24T00:21:35;34.37;;;1.30;;
4232;SDS011;2130;48.472;11.934;2023-04-24T00:24:24;34.77;;;1.37;;
4232;SDS011;2130;48.472;11.934;2023-04-24T00:27:12;35.17;;;1.50;;
4232;SDS011;2130;48.472;11.934;2023-04-24T00:30:01;34.70;;;1.60;;
4232;SDS011;2130;48.472;11.934;2023-04-24T00:32:50;35.53;;;1.80;;
4232;SDS011;2130;48.472;11.934;2023-04-24T00:35:40;34.40;;;1.37;;
4232;SDS011;2130;48.472;11.934;2023-04-24T00:38:30;33.03;;;1.47;;
4232;SDS011;2130;48.472;11.934;2023-04-24T00:41:18;34.17;;;1.50;;
4232;SDS011;2130;48.472;11.934;2023-04-24T00:44:07;33.43;;;1.30;;
4232;SDS011;2130;48.472;11.934;2023-04-24T00:46:56;34.77;;;1.30;;
4232;SDS011;2130;48.472;11.934;2023-04-24T00:49:44;35.10;;;1.50;;
4232;SDS011;2130;48.472;11.934;2023-04-24T00:52:34;34.57;;;1.33;;
4232;SDS011;2130;48.472;11.934;2023-04-24T00:55:24;34.43;;;1.40;;
4232;SDS011;2130;48.472;11.934;2023-04-24T00:58:12;35.20;;;1.40;;
4232;SDS011;2130;48.472;11.934;2023-04-24T01:01:02;34.67;;;1.30;;
4232;SDS011;2130;48.472;11.934;2023-04-24T01:03:54;35.10;;;1.30;;
4232;SDS011;2130;48.472;11.934;2023-04-24T01:06:43;33.77;;;1.40;;
4232;SDS011;2130;48.472;11.934;2023-04-24T01:09:33;34.67;;;1.30;;
4232;SDS011;2130;48.472;11.934;2023-04-24T01:12:23;34.50;;;1.30;;
4232;SDS011;2130;48.472;11.934;2023-04-24T01:15:12;34.97;;;1.37;;
4232;SDS011;2130;48.472;11.934;2023-04-24T01:18:02;35.03;;;1.40;;
4232;SDS011;2130;48.472;11.934;2023-04-24T01:20:53;34.23;;;1.40;;
4232;SDS011;2130;48.472;11.934;2023-04-24T01:23:44;35.23;;;1.20;;
4232;SDS011;2130;48.472;11.934;2023-04-24T01:26:33;35.27;;;1.40;;
4232;SDS011;2130;48.472;11.934;2023-04-24T01:29:21;35.27;;;1.70;;
4232;SDS011;2130;48.472;11.934;2023-04-24T01:32:10;34.97;;;1.30;;
4232;SDS011;2130;48.472;11.934;2023-04-24T01:34:59;35.63;;;1.30;;
4232;SDS011;2130;48.472;11.934;2023-04-24T01:37:48;34.53;;;1.30;;
4232;SDS011;2130;48.472;11.934;2023-04-24T01:40:38;35.00;;;1.37;;
4232;SDS011;2130;48.472;11.934;2023-04-24T01:43:27;33.50;;;1.43;;
4232;SDS011;2130;48.472;11.934;2023-04-24T01:46:17;35.10;;;1.40;;
4232;SDS011;2130;48.472;11.934;2023-04-24T01:49:06;33.37;;;1.20;;
4232;SDS011;2130;48.472;11.934;2023-04-24T01:51:54;35.10;;;1.30;;
4232;SDS011;2130;48.472;11.934;2023-04-24T01:54:43;34.50;;;1.40;;
4232;SDS011;2130;48.472;11.934;2023-04-24T01:57:33;34.30;;;1.40;;
4232;SDS011;2130;48.472;11.934;2023-04-24T02:00:21;34.23;;;1.40;;
4232;SDS011;2130;48.472;11.934;2023-04-24T02:03:12;34.50;;;1.40;;
4232;SDS011;2130;48.472;11.934;2023-04-24T02:06:01;34.47;;;1.30;;
4232;SDS011;2130;48.472;11.934;2023-04-24T02:08:50;34.13;;;1.50;;
4232;SDS011;2130;48.472;11.934;2023-04-24T02:11:39;35.40;;;1.30;;
4232;SDS011;2130;48.472;11.934;2023-04-24T02:14:29;34.20;;;1.30;;
4232;SDS011;2130;48.472;11.934;2023-04-24T02:17:17;33.50;;;1.50;;
4232;SDS011;2130;48.472;11.934;2023-04-24T02:20:06;34.17;;;1.30;;
4232;SDS011;2130;48.472;11.934;2023-04-24T02:22:57;33.50;;;1.40;;
4232;SDS011;2130;48.472;11.934;2023-04-24T02:25:46;33.90;;;1.30;;
4232;SDS011;2130;48.472;11.934;2023-04-24T02:28:36;34.67;;;1.50;;
4232;SDS011;2130;48.472;11.934;2023-04-24T02:31:26;33.87;;;1.30;;
4232;SDS011;2130;48.472;11.934;2023-04-24T02:34:15;34.00;;;1.40;;
4232;SDS011;2130;48.472;11.934;2023-04-24T02:37:03;34.17;;;1.40;;
4232;SDS011;2130;48.472;11.934;2023-04-24T02:39:52;33.33;;;1.40;;
4232;SDS011;2130;48.472;11.934;2023-04-24T02:42:41;35.07;;;1.40;;
4232;SDS011;2130;48.472;11.934;2023-04-24T02:45:29;34.57;;;1.30;;
4232;SDS011;2130;48.472;11.934;2023-04-24T02:48:19;34.37;;;1.30;;
4232;SDS011;2130;48.472;11.934;2023-04-24T02:51:07;33.67;;;1.40;;
4232;SDS011;2130;48.472;11.934;2023-04-24T02:53:56;34.10;;;1.30;;
4232;SDS011;2130;48.472;11.934;2023-04-24T02:56:45;33.70;;;1.40;;
4232;SDS011;2130;48.472;11.934;2023-04-24T02:59:33;34.10;;;1.40;;
4232;SDS011;2130;48.472;11.934;2023-04-24T03:02:22;34.80;;;1.40;;
4232;SDS011;2130;48.472;11.934;2023-04-24T03:05:12;34.10;;;1.30;;
4232;SDS011;2130;48.472;11.934;2023-04-24T03:08:00;33.77;;;1.30;;
4232;SDS011;2130;48.472;11.934;2023-04-24T03:10:49;34.17;;;1.37;;
4232;SDS011;2130;48.472;11.934;2023-04-24T03:13:37;34.57;;;1.40;;
4232;SDS011;2130;48.472;11.934;2023-04-24T03:16:25;34.00;;;1.50;;
4232;SDS011;2130;48.472;11.934;2023-04-24T03:19:14;34.90;;;1.40;;
4232;SDS011;2130;48.472;11.934;2023-04-24T03:22:18;34.37;;;1.30;;
4232;SDS011;2130;48.472;11.934;2023-04-24T03:25:07;34.10;;;1.50;;
4232;SDS011;2130;48.472;11.934;2023-04-24T03:27:56;33.93;;;1.40;;
4232;SDS011;2130;48.472;11.934;2023-04-24T03:30:57;34.20;;;1.30;;
4232;SDS011;2130;48.472;11.934;2023-04-24T03:33:51;33.83;;;1.40;;
4232;SDS011;2130;48.472;11.934;2023-04-24T03:36:39;33.23;;;1.37;;
4232;SDS011;2130;48.472;11.934;2023-04-24T03:39:29;33.87;;;1.40;;
4232;SDS011;2130;48.472;11.934;2023-04-24T03:42:18;33.07;;;1.30;;
4232;SDS011;2130;48.472;11.934;2023-04-24T03:45:13;34.23;;;1.27;;
4232;SDS011;2130;48.472;11.934;2023-04-24T03:48:06;33.63;;;1.40;;
4232;SDS011;2130;48.472;11.934;2023-04-24T03:50:56;34.03;;;1.30;;
4232;SDS011;2130;48.472;11.934;2023-04-24T03:53:44;33.70;;;1.40;;
4232;SDS011;2130;48.472;11.934;2023-04-24T03:56:38;32.90;;;1.40;;
4232;SDS011;2130;48.472;11.934;2023-04-24T03:59:27;34.07;;;1.20;;
4232;SDS011;2130;48.472;11.934;2023-04-24T04:02:37;33.27;;;1.37;;
4232;SDS011;2130;48.472;11.934;2023-04-24T04:05:26;33.10;;;1.30;;
4232;SDS011;2130;48.472;11.934;2023-04-24T04:08:14;34.17;;;1.50;;
4232;SDS011;2130;48.472;11.934;2023-04-24T04:11:02;33.83;;;1.23;;
4232;SDS011;2130;48.472;11.934;2023-04-24T04:13:53;33.17;;;1.30;;
4232;SDS011;2130;48.472;11.934;2023-04-24T04:16:41;33.80;;;1.30;;
4232;SDS011;2130;48.472;11.934;2023-04-24T04:19:30;32.30;;;1.30;;
4232;SDS011;2130;48.472;11.934;2023-04-24T04:22:19;32.60;;;1.37;;
4232;SDS011;2130;48.472;11.934;2023-04-24T04:25:10;33.43;;;1.30;;
4232;SDS011;2130;48.472;11.934;2023-04-24T04:28:00;33.77;;;1.30;;
4232;SDS011;2130;48.472;11.934;2023-04-24T04:30:50;33.70;;;1.30;;
4232;SDS011;2130;48.472;11.934;2023-04-24T04:33:41;32.37;;;1.30;;
4232;SDS011;2130;48.472;11.934;2023-04-24T04:36:29;32.80;;;1.40;;
4232;SDS011;2130;48.472;11.934;2023-04-24T04:39:26;32.80;;;1.20;;
4232;SDS011;2130;48.472;11.934;2023-04-24T04:42:35;32.97;;;1.30;;
4232;SDS011;2130;48.472;11.934;2023-04-24T04:45:27;33.30;;;1.60;;
4232;SDS011;2130;48.472;11.934;2023-04-24T04:48:39;32.60;;;1.30;;
4232;SDS011;2130;48.472;11.934;2023-04-24T04:51:28;32.90;;;1.20;;
4232;SDS011;2130;48.472;11.934;2023-04-24T04:54:18;33.20;;;1.20;;
4232;SDS011;2130;48.472;11.934;2023-04-24T04:57:06;32.97;;;1.40;;
4232;SDS011;2130;48.472;11.934;2023-04-24T04:59:55;33.17;;;1.20;;
4232;SDS011;2130;48.472;11.934;2023-04-24T05:02:56;33.03;;;1.30;;
4232;SDS011;2130;48.472;11.934;2023-04-24T05:06:07;32.70;;;1.20;;
4232;SDS011;2130;48.472;11.934;2023-04-24T05:08:57;33.37;;;1.23;;
4232;SDS011;2130;48.472;11.934;2023-04-24T05:12:12;32.77;;;1.27;;
4232;SDS011;2130;48.472;11.934;2023-04-24T05:15:08;33.37;;;1.40;;
4232;SDS011;2130;48.472;11.934;2023-04-24T05:17:57;32.70;;;1.37;;
4232;SDS011;2130;48.472;11.934;2023-04-24T05:20:46;32.50;;;1.27;;
4232;SDS011;2130;48.472;11.934;2023-04-24T05:23:36;32.10;;;1.40;;
4232;SDS011;2130;48.472;11.934;2023-04-24T05:26:25;32.40;;;1.40;;
4232;SDS011;2130;48.472;11.934;2023-04-24T05:29:15;30.37;;;1.30;;
4232;SDS011;2130;48.472;11.934;2023-04-24T05:32:06;32.67;;;1.30;;
4232;SDS011;2130;48.472;11.934;2023-04-24T05:34:54;32.67;;;1.30;;
4232;SDS011;2130;48.472;11.934;2023-04-24T05:37:43;32.50;;;1.27;;
4232;SDS011;2130;48.472;11.934;2023-04-24T05:40:33;33.13;;;1.30;;
4232;SDS011;2130;48.472;11.934;2023-04-24T05:43:22;30.13;;;1.30;;
4232;SDS011;2130;48.472;11.934;2023-04-24T05:46:11;32.50;;;1.20;;
4232;SDS011;2130;48.472;11.934;2023-04-24T05:48:59;33.97;;;1.47;;
4232;SDS011;2130;48.472;11.934;2023-04-24T05:51:50;33.00;;;1.20;;
4232;SDS011;2130;48.472;11.934;2023-04-24T05:54:39;32.90;;;1.30;;
4232;SDS011;2130;48.472;11.934;2023-04-24T05:57:31;32.20;;;1.27;;
4232;SDS011;2130;48.472;11.934;2023-04-24T06:00:23;32.97;;;1.30;;
4232;SDS011;2130;48.472;11.934;2023-04-24T06:03:19;33.43;;;1.40;;
4232;SDS011;2130;48.472;11.934;2023-04-24T06:06:08;31.87;;;1.27;;
4232;SDS011;2130;48.472;11.934;2023-04-24T06:08:56;33.20;;;1.30;;
4232;SDS011;2130;48.472;11.934;2023-04-24T06:11:47;34.30;;;1.30;;
4232;SDS011;2130;48.472;11.934;2023-04-24T06:14:36;32.90;;;1.40;;
4232;SDS011;2130;48.472;11.934;2023-04-24T06:17:38;32.70;;;1.40;;
4232;SDS011;2130;48.472;11.934;2023-04-24T06:20:26;32.77;;;1.30;;
4232;SDS011;2130;48.472;11.934;2023-04-24T06:23:15;32.90;;;1.30;;
4232;SDS011;2130;48.472;11.934;2023-04-24T06:26:03;33.40;;;1.23;;
4232;SDS011;2130;48.472;11.934;2023-04-24T06:28:52;33.53;;;1.27;;
4232;SDS011;2130;48.472;11.934;2023-04-24T06:31:43;33.10;;;1.30;;
4232;SDS011;2130;48.472;11.934;2023-04-24T06:34:31;32.37;;;1.20;;
4232;SDS011;2130;48.472;11.934;2023-04-24T06:37:21;33.67;;;1.50;;
4232;SDS011;2130;48.472;11.934;2023-04-24T06:40:09;33.70;;;1.30;;
4232;SDS011;2130;48.472;11.934;2023-04-24T06:42:58;33.67;;;1.30;;
4232;SDS011;2130;48.472;11.934;2023-04-24T06:45:47;33.47;;;1.40;;
4232;SDS011;2130;48.472;11.934;2023-04-24T06:48:36;32.57;;;1.20;;
4232;SDS011;2130;48.472;11.934;2023-04-24T06:51:25;33.37;;;1.40;;
4232;SDS011;2130;48.472;11.934;2023-04-24T06:54:14;33.43;;;1.30;;
4232;SDS011;2130;48.472;11.934;2023-04-24T06:57:02;32.87;;;1.30;;
4232;SDS011;2130;48.472;11.934;2023-04-24T06:59:51;33.07;;;1.30;;
4232;SDS011;2130;48.472;11.934;2023-04-24T07:02:39;33.67;;;1.50;;
4232;SDS011;2130;48.472;11.934;2023-04-24T07:05:29;32.37;;;1.30;;
4232;SDS011;2130;48.472;11.934;2023-04-24T07:08:18;33.00;;;1.30;;
4232;SDS011;2130;48.472;11.934;2023-04-24T07:11:07;33.90;;;1.40;;
4232;SDS011;2130;48.472;11.934;2023-04-24T07:13:55;33.70;;;1.30;;
4232;SDS011;2130;48.472;11.934;2023-04-24T07:16:44;34.30;;;1.40;;
4232;SDS011;2130;48.472;11.934;2023-04-24T07:19:34;34.87;;;1.40;;
4232;SDS011;2130;48.472;11.934;2023-04-24T07:22:24;33.43;;;1.27;;
4232;SDS011;2130;48.472;11.934;2023-04-24T07:25:13;33.70;;;1.20;;
4232;SDS011;2130;48.472;11.934;2023-04-24T07:28:01;33.10;;;1.40;;
4232;SDS011;2130;48.472;11.934;2023-04-24T07:30:51;34.10;;;1.27;;
4232;SDS011;2130;48.472;11.934;2023-04-24T07:33:41;34.27;;;1.30;;
4232;SDS011;2130;48.472;11.934;2023-04-24T07:36:29;33.27;;;1.40;;
4232;SDS011;2130;48.472;11.934;2023-04-24T07:39:20;33.13;;;1.30;;
4232;SDS011;2130;48.472;11.934;2023-04-24T07:42:09;34.20;;;1.30;;
4232;SDS011;2130;48.472;11.934;2023-04-24T07:44:58;33.57;;;1.30;;
4232;SDS011;2130;48.472;11.934;2023-04-24T07:47:47;33.20;;;1.30;;
4232;SDS011;2130;48.472;11.934;2023-04-24T07:50:35;37.10;;;1.40;;
4232;SDS011;2130;48.472;11.934;2023-04-24T07:53:24;33.70;;;1.20;;
4232;SDS011;2130;48.472;11.934;2023-04-24T07:56:13;34.77;;;2.23;;
4232;SDS011;2130;48.472;11.934;2023-04-24T07:59:02;34.37;;;1.30;;
4232;SDS011;2130;48.472;11.934;2023-04-24T08:01:50;33.90;;;1.40;;
4232;SDS011;2130;48.472;11.934;2023-04-24T08:04:39;34.10;;;1.20;;
4232;SDS011;2130;48.472;11.934;2023-04-24T08:07:27;34.73;;;1.90;;
4232;SDS011;2130;48.472;11.934;2023-04-24T08:10:16;34.60;;;1.30;;
4232;SDS011;2130;48.472;11.934;2023-04-24T08:13:06;35.00;;;1.27;;
4232;SDS011;2130;48.472;11.934;2023-04-24T08:15:54;34.37;;;1.20;;
4232;SDS011;2130;48.472;11.934;2023-04-24T08:18:44;35.17;;;1.40;;
4232;SDS011;2130;48.472;11.934;2023-04-24T08:21:32;35.60;;;1.30;;
4232;SDS011;2130;48.472;11.934;2023-04-24T08:24:21;34.00;;;1.30;;
4232;SDS011;2130;48.472;11.934;2023-04-24T08:27:10;35.87;;;1.40;;
4232;SDS011;2130;48.472;11.934;2023-04-24T08:29:59;34.50;;;1.30;;
4232;SDS011;2130;48.472;11.934;2023-04-24T08:32:48;35.77;;;1.20;;
4232;SDS011;2130;48.472;11.934;2023-04-24T08:35:37;34.13;;;1.20;;
4232;SDS011;2130;48.472;11.934;2023-04-24T08:38:25;34.77;;;1.20;;
4232;SDS011;2130;48.472;11.934;2023-04-24T08:41:14;32.80;;;1.20;;
4232;SDS011;2130;48.472;11.934;2023-04-24T08:44:03;34.90;;;1.40;;
4232;SDS011;2130;48.472;11.934;2023-04-24T08:46:56;35.30;;;2.13;;
4232;SDS011;2130;48.472;11.934;2023-04-24T08:49:45;33.30;;;1.40;;
4232;SDS011;2130;48.472;11.934;2023-04-24T08:52:36;34.10;;;1.30;;
4232;SDS011;2130;48.472;11.934;2023-04-24T08:55:24;34.03;;;1.30;;
4232;SDS011;2130;48.472;11.934;2023-04-24T08:58:13;34.10;;;1.40;;
4232;SDS011;2130;48.472;11.934;2023-04-24T09:01:02;33.40;;;1.20;;
4232;SDS011;2130;48.472;11.934;2023-04-24T09:03:52;34.20;;;1.40;;
4232;SDS011;2130;48.472;11.934;2023-04-24T09:06:42;34.70;;;1.60;;
4232;SDS011;2130;48.472;11.934;2023-04-24T09:09:30;32.97;;;1.37;;
4232;SDS011;2130;48.472;11.934;2023-04-24T09:12:19;33.80;;;1.20;;
4232;SDS011;2130;48.472;11.934;2023-04-24T09:15:08;34.20;;;1.50;;
4232;SDS011;2130;48.472;11.934;2023-04-24T09:17:57;34.07;;;1.30;;
4232;SDS011;2130;48.472;11.934;2023-04-24T09:21:00;34.20;;;1.50;;
4232;SDS011;2130;48.472;11.934;2023-04-24T09:23:57;33.80;;;1.30;;
4232;SDS011;2130;48.472;11.934;2023-04-24T09:26:46;33.47;;;1.20;;
4232;SDS011;2130;48.472;11.934;2023-04-24T09:29:34;32.97;;;1.40;;
4232;SDS011;2130;48.472;11.934;2023-04-24T09:32:23;33.70;;;1.20;;
4232;SDS011;2130;48.472;11.934;2023-04-24T09:35:14;32.60;;;1.20;;
4232;SDS011;2130;48.472;11.934;2023-04-24T09:38:04;33.47;;;1.33;;
4232;SDS011;2130;48.472;11.934;2023-04-24T09:40:52;34.20;;;1.60;;
4232;SDS011;2130;48.472;11.934;2023-04-24T09:43:41;33.10;;;1.30;;
4232;SDS011;2130;48.472;11.934;2023-04-24T09:46:29;34.50;;;1.40;;
4232;SDS011;2130;48.472;11.934;2023-04-24T09:49:21;34.30;;;1.40;;
4232;SDS011;2130;48.472;11.934;2023-04-24T09:52:10;33.60;;;1.50;;
4232;SDS011;2130;48.472;11.934;2023-04-24T09:55:01;33.23;;;1.30;;
4232;SDS011;2130;48.472;11.934;2023-04-24T09:57:50;32.00;;;1.30;;
4232;SDS011;2130;48.472;11.934;2023-04-24T10:00:39;32.87;;;1.50;;
4232;SDS011;2130;48.472;11.934;2023-04-24T10:03:29;33.07;;;1.30;;
4232;SDS011;2130;48.472;11.934;2023-04-24T10:06:18;33.77;;;1.30;;
4232;SDS011;2130;48.472;11.934;2023-04-24T10:09:06;33.47;;;1.30;;
4232;SDS011;2130;48.472;11.934;2023-04-24T10:11:59;34.67;;;1.50;;
4232;SDS011;2130;48.472;11.934;2023-04-24T10:14:49;34.43;;;1.30;;
4232;SDS011;2130;48.472;11.934;2023-04-24T10:17:39;32.07;;;1.50;;
4232;SDS011;2130;48.472;11.934;2023-04-24T10:20:28;33.60;;;1.30;;
4232;SDS011;2130;48.472;11.934;2023-04-24T10:23:17;34.27;;;1.27;;
4232;SDS011;2130;48.472;11.934;2023-04-24T10:26:07;33.77;;;1.30;;
4232;SDS011;2130;48.472;11.934;2023-04-24T10:28:58;34.40;;;1.50;;
4232;SDS011;2130;48.472;11.934;2023-04-24T10:31:47;34.97;;;1.37;;
4232;SDS011;2130;48.472;11.934;2023-04-24T10:34:35;33.37;;;1.40;;
4232;SDS011;2130;48.472;11.934;2023-04-24T10:37:24;33.57;;;1.30;;
4232;SDS011;2130;48.472;11.934;2023-04-24T10:40:16;34.57;;;1.40;;
4232;SDS011;2130;48.472;11.934;2023-04-24T10:43:06;33.50;;;1.20;;
4232;SDS011;2130;48.472;11.934;2023-04-24T10:46:02;34.70;;;1.27;;
4232;SDS011;2130;48.472;11.934;2023-04-24T10:48:52;34.67;;;1.30;;
4232;SDS011;2130;48.472;11.934;2023-04-24T10:51:46;34.30;;;1.30;;
4232;SDS011;2130;48.472;11.934;2023-04-24T10:54:36;34.77;;;1.30;;
4232;SDS011;2130;48.472;11.934;2023-04-24T10:57:25;34.43;;;1.53;;
4232;SDS011;2130;48.472;11.934;2023-04-24T11:00:18;33.90;;;1.30;;
4232;SDS011;2130;48.472;11.934;2023-04-24T11:03:22;34.77;;;1.60;;
4232;SDS011;2130;48.472;11.934;2023-04-24T11:06:12;35.10;;;1.30;;
4232;SDS011;2130;48.472;11.934;2023-04-24T11:09:04;35.00;;;1.30;;
4232;SDS011;2130;48.472;11.934;2023-04-24T11:12:02;35.27;;;1.30;;
4232;SDS011;2130;48.472;11.934;2023-04-24T11:14:59;34.60;;;1.40;;
4232;SDS011;2130;48.472;11.934;2023-04-24T11:17:49;34.40;;;1.30;;
4232;SDS011;2130;48.472;11.934;2023-04-24T11:20:45;34.80;;;1.30;;
4232;SDS011;2130;48.472;11.934;2023-04-24T11:23:35;33.70;;;1.40;;
4232;SDS011;2130;48.472;11.934;2023-04-24T11:26:24;33.37;;;1.30;;
4232;SDS011;2130;48.472;11.934;2023-04-24T11:29:19;35.00;;;1.30;;
4232;SDS011;2130;48.472;11.934;2023-04-24T11:32:16;34.73;;;1.23;;
4232;SDS011;2130;48.472;11.934;2023-04-24T11:35:13;35.07;;;1.33;;
4232;SDS011;2130;48.472;11.934;2023-04-24T11:38:04;34.90;;;1.20;;
4232;SDS011;2130;48.472;11.934;2023-04-24T11:41:10;34.63;;;1.30;;
4232;SDS011;2130;48.472;11.934;2023-04-24T11:43:59;35.70;;;1.33;;
4232;SDS011;2130;48.472;11.934;2023-04-24T11:46:48;35.07;;;1.33;;
4232;SDS011;2130;48.472;11.934;2023-04-24T11:49:36;34.37;;;1.30;;
4232;SDS011;2130;48.472;11.934;2023-04-24T11:52:25;34.20;;;1.30;;
4232;SDS011;2130;48.472;11.934;2023-04-24T11:55:25;34.40;;;1.20;;
4232;SDS011;2130;48.472;11.934;2023-04-24T11:58:14;33.57;;;1.73;;
4232;SDS011;2130;48.472;11.934;2023-04-24T12:01:03;33.90;;;1.40;;
4232;SDS011;2130;48.472;11.934;2023-04-24T12:03:58;34.37;;;1.50;;
4232;SDS011;2130;48.472;11.934;2023-04-24T12:07:00;34.60;;;1.43;;
4232;SDS011;2130;48.472;11.934;2023-04-24T12:09:49;34.63;;;1.37;;
4232;SDS011;2130;48.472;11.934;2023-04-24T12:12:44;34.57;;;1.50;;
4232;SDS011;2130;48.472;11.934;2023-04-24T12:15:33;34.97;;;1.27;;
4232;SDS011;2130;48.472;11.934;2023-04-24T12:18:22;33.77;;;1.40;;
4232;SDS011;2130;48.472;11.934;2023-04-24T12:21:17;34.70;;;1.20;;
4232;SDS011;2130;48.472;11.934;2023-04-24T12:24:09;35.47;;;1.50;;
4232;SDS011;2130;48.472;11.934;2023-04-24T12:26:57;35.00;;;1.30;;
4232;SDS011;2130;48.472;11.934;2023-04-24T12:29:53;34.77;;;1.30;;
4232;SDS011;2130;48.472;11.934;2023-04-24T12:32:42;34.17;;;1.23;;
4232;SDS011;2130;48.472;11.934;2023-04-24T12:35:32;35.00;;;1.40;;
4232;SDS011;2130;48.472;11.934;2023-04-24T12:38:23;33.90;;;1.30;;
4232;SDS011;2130;48.472;11.934;2023-04-24T12:41:13;34.67;;;1.30;;
4232;SDS011;2130;48.472;11.934;2023-04-24T12:44:01;33.67;;;1.30;;
4232;SDS011;2130;48.472;11.934;2023-04-24T12:46:51;35.27;;;1.40;;
4232;SDS011;2130;48.472;11.934;2023-04-24T12:49:40;34.90;;;1.30;;
4232;SDS011;2130;48.472;11.934;2023-04-24T12:52:28;35.37;;;1.40;;
4232;SDS011;2130;48.472;11.934;2023-04-24T12:55:17;34.87;;;1.30;;
4232;SDS011;2130;48.472;11.934;2023-04-24T12:58:06;35.73;;;1.30;;
4232;SDS011;2130;48.472;11.934;2023-04-24T13:00:54;34.70;;;1.20;;
4232;SDS011;2130;48.472;11.934;2023-04-24T13:03:44;35.50;;;1.33;;
4232;SDS011;2130;48.472;11.934;2023-04-24T13:06:33;35.70;;;1.30;;
4232;SDS011;2130;48.472;11.934;2023-04-24T13:09:22;36.23;;;1.40;;
4232;SDS011;2130;48.472;11.934;2023-04-24T13:12:10;36.17;;;1.30;;
4232;SDS011;2130;48.472;11.934;2023-04-24T13:14:59;36.70;;;1.30;;
4232;SDS011;2130;48.472;11.934;2023-04-24T13:17:50;36.20;;;1.40;;
4232;SDS011;2130;48.472;11.934;2023-04-24T13:20:40;37.23;;;1.30;;
4232;SDS011;2130;48.472;11.934;2023-04-24T13:23:28;35.87;;;2.33;;
4232;SDS011;2130;48.472;11.934;2023-04-24T13:26:17;35.97;;;1.20;;
4232;SDS011;2130;48.472;11.934;2023-04-24T13:29:05;36.60;;;1.30;;
4232;SDS011;2130;48.472;11.934;2023-04-24T13:31:54;35.70;;;1.30;;
4232;SDS011;2130;48.472;11.934;2023-04-24T13:34:43;35.23;;;1.20;;
4232;SDS011;2130;48.472;11.934;2023-04-24T13:37:33;34.97;;;1.33;;
4232;SDS011;2130;48.472;11.934;2023-04-24T13:40:21;35.40;;;1.30;;
4232;SDS011;2130;48.472;11.934;2023-04-24T13:43:10;35.67;;;1.40;;
4232;SDS011;2130;48.472;11.934;2023-04-24T13:45:58;34.80;;;1.30;;
4232;SDS011;2130;48.472;11.934;2023-04-24T13:48:49;35.07;;;1.20;;
4232;SDS011;2130;48.472;11.934;2023-04-24T13:51:38;35.50;;;1.40;;
4232;SDS011;2130;48.472;11.934;2023-04-24T13:54:28;36.27;;;1.40;;
4232;SDS011;2130;48.472;11.934;2023-04-24T13:57:16;36.47;;;1.40;;
4232;SDS011;2130;48.472;11.934;2023-04-24T14:00:05;36.50;;;1.27;;
4232;SDS011;2130;48.472;11.934;2023-04-24T14:02:57;36.13;;;1.27;;
4232;SDS011;2130;48.472;11.934;2023-04-24T14:05:46;37.47;;;1.60;;
4232;SDS011;2130;48.472;11.934;2023-04-24T14:08:34;36.50;;;1.30;;
4232;SDS011;2130;48.472;11.934;2023-04-24T14:11:24;36.57;;;1.40;;
4232;SDS011;2130;48.472;11.934;2023-04-24T14:14:14;37.57;;;1.30;;
4232;SDS011;2130;48.472;11.934;2023-04-24T14:17:02;36.30;;;1.30;;
4232;SDS011;2130;48.472;11.934;2023-04-24T14:19:51;36.80;;;1.40;;
4232;SDS011;2130;48.472;11.934;2023-04-24T14:22:43;37.10;;;1.40;;
4232;SDS011;2130;48.472;11.934;2023-04-24T14:25:31;37.50;;;1.37;;
4232;SDS011;2130;48.472;11.934;2023-04-24T14:28:21;40.93;;;2.13;;
4232;SDS011;2130;48.472;11.934;2023-04-24T14:31:09;36.07;;;1.20;;
4232;SDS011;2130;48.472;11.934;2023-04-24T14:33:58;37.30;;;1.40;;
4232;SDS011;2130;48.472;11.934;2023-04-24T14:36:47;36.53;;;1.50;;
4232;SDS011;2130;48.472;11.934;2023-04-24T14:39:35;36.87;;;1.50;;
4232;SDS011;2130;48.472;11.934;2023-04-24T14:42:24;37.87;;;1.60;;
4232;SDS011;2130;48.472;11.934;2023-04-24T14:45:14;34.73;;;1.30;;
4232;SDS011;2130;48.472;11.934;2023-04-24T14:48:02;36.00;;;1.40;;
4232;SDS011;2130;48.472;11.934;2023-04-24T14:50:51;36.93;;;1.43;;
4232;SDS011;2130;48.472;11.934;2023-04-24T14:53:39;37.03;;;1.30;;
4232;SDS011;2130;48.472;11.934;2023-04-24T14:56:28;36.97;;;1.40;;
4232;SDS011;2130;48.472;11.934;2023-04-24T14:59:17;37.37;;;1.30;;
4232;SDS011;2130;48.472;11.934;2023-04-24T15:02:06;37.37;;;1.23;;
4232;SDS011;2130;48.472;11.934;2023-04-24T15:05:00;35.60;;;1.40;;
4232;SDS011;2130;48.472;11.934;2023-04-24T15:07:50;36.07;;;1.30;;
4232;SDS011;2130;48.472;11.934;2023-04-24T15:10:38;37.10;;;1.40;;
4232;SDS011;2130;48.472;11.934;2023-04-24T15:13:27;36.17;;;1.30;;
4232;SDS011;2130;48.472;11.934;2023-04-24T15:16:15;36.60;;;1.30;;
4232;SDS011;2130;48.472;11.934;2023-04-24T15:19:05;35.90;;;1.37;;
4232;SDS011;2130;48.472;11.934;2023-04-24T15:21:54;36.60;;;1.30;;
4232;SDS011;2130;48.472;11.934;2023-04-24T15:24:42;36.30;;;1.50;;
4232;SDS011;2130;48.472;11.934;2023-04-24T15:27:38;35.27;;;1.40;;
4232;SDS011;2130;48.472;11.934;2023-04-24T15:30:28;35.43;;;1.30;;
4232;SDS011;2130;48.472;11.934;2023-04-24T15:33:17;36.37;;;1.40;;
4232;SDS011;2130;48.472;11.934;2023-04-24T15:36:07;35.47;;;1.30;;
4232;SDS011;2130;48.472;11.934;2023-04-24T15:38:56;36.70;;;1.50;;
4232;SDS011;2130;48.472;11.934;2023-04-24T15:41:44;36.50;;;1.47;;
4232;SDS011;2130;48.472;11.934;2023-04-24T15:44:32;36.27;;;1.60;;
4232;SDS011;2130;48.472;11.934;2023-04-24T15:47:21;35.83;;;1.40;;
4232;SDS011;2130;48.472;11.934;2023-04-24T15:50:09;36.53;;;1.80;;
4232;SDS011;2130;48.472;11.934;2023-04-24T15:53:01;34.97;;;1.40;;
4232;SDS011;2130;48.472;11.934;2023-04-24T15:55:50;35.50;;;1.30;;
4232;SDS011;2130;48.472;11.934;2023-04-24T15:58:39;36.23;;;1.30;;
4232;SDS011;2130;48.472;11.934;2023-04-24T16:01:28;36.50;;;1.40;;
4232;SDS011;2130;48.472;11.934;2023-04-24T16:04:17;35.00;;;1.47;;
4232;SDS011;2130;48.472;11.934;2023-04-24T16:07:06;35.13;;;1.37;;
4232;SDS011;2130;48.472;11.934;2023-04-24T16:09:55;36.77;;;1.40;;
4232;SDS011;2130;48.472;11.934;2023-04-24T16:12:44;35.27;;;1.37;;
4232;SDS011;2130;48.472;11.934;2023-04-24T16:15:32;35.97;;;1.30;;
4232;SDS011;2130;48.472;11.934;2023-04-24T16:18:22;36.30;;;1.50;;
4232;SDS011;2130;48.472;11.934;2023-04-24T16:21:10;35.57;;;1.30;;
4232;SDS011;2130;48.472;11.934;2023-04-24T16:23:59;37.10;;;1.73;;
4232;SDS011;2130;48.472;11.934;2023-04-24T16:26:48;35.57;;;1.30;;
4232;SDS011;2130;48.472;11.934;2023-04-24T16:29:37;36.17;;;1.50;;
4232;SDS011;2130;48.472;11.934;2023-04-24T16:32:26;36.30;;;1.60;;
4232;SDS011;2130;48.472;11.934;2023-04-24T16:35:14;34.97;;;1.40;;
4232;SDS011;2130;48.472;11.934;2023-04-24T16:38:03;33.27;;;1.30;;
4232;SDS011;2130;48.472;11.934;2023-04-24T16:40:51;33.70;;;1.40;;
4232;SDS011;2130;48.472;11.934;2023-04-24T16:43:41;33.60;;;1.50;;
4232;SDS011;2130;48.472;11.934;2023-04-24T16:46:29;33.97;;;1.40;;
4232;SDS011;2130;48.472;11.934;2023-04-24T16:49:17;35.70;;;1.70;;
4232;SDS011;2130;48.472;11.934;2023-04-24T16:52:06;33.60;;;1.47;;
4232;SDS011;2130;48.472;11.934;2023-04-24T16:54:55;34.60;;;1.40;;
4232;SDS011;2130;48.472;11.934;2023-04-24T16:57:43;34.30;;;1.40;;
4232;SDS011;2130;48.472;11.934;2023-04-24T17:00:33;33.10;;;1.50;;
4232;SDS011;2130;48.472;11.934;2023-04-24T17:03:22;32.10;;;1.40;;
4232;SDS011;2130;48.472;11.934;2023-04-24T17:06:11;33.47;;;1.60;;